Time;durP1;ratioP1;P1;durP2;ratioP2;P2;SDS_P1;SDS_P2;PMS_P1;PMS_P2;Temp;Humidity;BMP_temperature;BMP_pressure;BME280_temperature;BME280_humidity;BME280_pressure;Samples;Min_cycle;Max_cycle;Signal;HPM_P1;HPM_P2
2022/02/09 00:02:23;;;;;;;1.25;0.30;;;;;;;0.81;56.41;98849.44;5070107;28;20047;-53
2022/02/09 00:08:09;;;;;;;1.02;0.50;;;;;;;0.75;55.73;98848.94;5070263;28;20071;-56
2022/02/09 00:10:14;;;;;;;0.90;0.43;;;;;;;0.72;56.32;98852.59;5064915;28;20040;-56
2022/02/09 00:12:47;;;;;;;0.98;0.30;;;;;;;0.71;56.29;98848.25;5073138;28;20079;-53
2022/02/09 00:17:52;;;;;;;0.20;0.10;;;;;;;0.72;55.30;98847.31;5073536;28;20044;-53
2022/02/09 00:28:49;;;;;;;0.20;0.10;;;;;;;0.80;54.44;98844.28;5073437;28;20462;-55
2022/02/09 01:55:52;;;;;;;1.33;0.82;;;;;;;1.02;55.43;98848.31;5071526;28;20079;-52
2022/02/09 01:58:21;;;;;;;2.40;0.70;;;;;;;1.03;55.67;98848.22;5071591;28;20063;-52
2022/02/09 02:00:47;;;;;;;1.30;0.47;;;;;;;0.94;55.60;98836.41;5071544;28;20095;-52
2022/02/09 02:03:12;;;;;;;0.80;0.68;;;;;;;0.92;55.94;98832.19;5071231;28;20036;-56
2022/02/09 02:05:38;;;;;;;1.00;0.70;;;;;;;1.00;55.28;98858.94;5071323;28;20028;-53
2022/02/09 02:08:06;;;;;;;1.70;1.05;;;;;;;0.99;55.33;98852.84;5071519;28;20037;-57
2022/02/09 02:18:24;;;;;;;0.82;0.50;;;;;;;0.91;54.95;98838.41;5033638;28;20430;-53
2022/02/09 02:33:45;;;;;;;1.35;0.90;;;;;;;1.05;55.45;98854.25;5071535;28;20020;-50
2022/02/09 02:36:27;;;;;;;1.08;0.88;;;;;;;0.61;55.60;98781.22;5070810;28;20048;-50
2022/02/09 02:39:12;;;;;;;1.38;0.85;;;;;;;1.05;55.76;98854.25;5071264;28;20457;-50
2022/02/09 02:45:10;;;;;;;0.65;0.63;;;;;;;1.04;56.05;98857.00;5070365;28;20082;-54
2022/02/09 03:14:06;;;;;;;1.77;0.73;;;;;;;0.84;57.30;98861.59;5070335;28;20028;-56
2022/02/09 03:16:38;;;;;;;1.60;0.82;;;;;;;0.78;57.54;98856.69;5071407;28;20493;-53
2022/02/09 03:22:01;;;;;;;1.83;1.10;;;;;;;0.77;57.47;98855.81;5070447;28;20039;-53
2022/02/09 03:49:02;;;;;;;1.77;1.40;;;;;;;0.74;57.57;98861.25;5074242;28;20033;-52
2022/02/09 03:59:28;;;;;;;1.52;1.30;;;;;;;0.72;56.45;98860.50;5074027;28;20028;-57
2022/02/09 04:01:54;;;;;;;1.65;1.30;;;;;;;0.75;56.51;98862.97;5073605;28;20469;-53
2022/02/09 04:04:19;;;;;;;1.83;1.40;;;;;;;0.75;56.45;98856.84;5073814;28;20043;-52
2022/02/09 04:06:49;;;;;;;2.25;1.33;;;;;;;0.75;56.53;98857.69;5073229;28;20033;-53
2022/02/09 04:09:17;;;;;;;1.90;1.50;;;;;;;0.72;56.71;98863.13;5055665;28;20037;-55
2022/02/09 04:12:31;;;;;;;2.75;1.60;;;;;;;0.73;56.58;98861.38;5073403;28;20028;-56
2022/02/09 04:14:56;;;;;;;1.92;1.58;;;;;;;0.46;56.51;98819.78;5065504;28;20400;-53
2022/02/09 04:38:58;;;;;;;0.82;0.77;;;;;;;0.74;54.91;98863.06;5072660;28;20483;-53
2022/02/09 04:44:16;;;;;;;1.17;0.90;;;;;;;0.37;54.61;98819.38;5073234;28;20092;-54
2022/02/09 05:02:48;;;;;;;1.75;0.80;;;;;;;0.59;54.45;98827.84;5072923;28;20112;-48
2022/02/09 05:21:51;;;;;;;0.75;0.70;;;;;;;0.88;54.38;98872.81;5072113;28;20476;-55
2022/02/09 05:24:17;;;;;;;2.03;1.23;;;;;;;0.94;54.06;98883.84;5072170;28;20465;-56
2022/02/09 05:27:01;;;;;;;5.60;0.88;;;;;;;0.91;54.34;98873.47;5072004;28;20032;-54
2022/02/09 05:29:27;;;;;;;0.73;0.70;;;;;;;0.95;53.86;98872.38;5072221;28;20130;-56
2022/02/09 05:31:53;;;;;;;3.38;1.50;;;;;;;0.61;54.14;98829.47;5071538;28;20036;-56
2022/02/09 05:34:19;;;;;;;2.38;1.02;;;;;;;0.88;54.04;98876.31;5071823;28;20033;-55
2022/02/09 05:36:45;;;;;;;1.75;1.20;;;;;;;0.91;54.69;98873.47;5071822;28;20028;-53
2022/02/09 05:39:12;;;;;;;2.13;1.08;;;;;;;0.93;54.43;98887.44;5072305;28;20047;-53
2022/02/09 05:41:43;;;;;;;1.60;0.95;;;;;;;0.95;54.35;98879.44;5053816;28;20421;-55
2022/02/09 05:44:10;;;;;;;1.33;1.00;;;;;;;0.97;54.38;98881.06;5071791;28;20472;-50
2022/02/09 05:52:17;;;;;;;1.90;1.33;;;;;;;1.03;54.47;98892.19;5071169;28;20347;-51
2022/02/09 05:55:12;;;;;;;1.95;1.40;;;;;;;1.08;54.83;98888.34;5071418;28;20029;-55
2022/02/09 05:57:50;;;;;;;2.38;1.30;;;;;;;1.14;54.37;98882.75;5070855;28;20033;-56
2022/02/09 06:00:17;;;;;;;2.78;1.08;;;;;;;1.16;54.23;98885.28;5050262;28;20029;-55
2022/02/09 06:02:44;;;;;;;2.97;1.30;;;;;;;0.96;54.13;98850.34;5069835;28;20047;-54
2022/02/09 06:05:12;;;;;;;3.58;1.30;;;;;;;1.00;54.19;98857.19;5070252;28;20037;-56
2022/02/09 06:07:37;;;;;;;2.75;1.67;;;;;;;1.18;54.68;98886.03;5070422;28;20083;-56
2022/02/09 06:10:03;;;;;;;1.95;1.52;;;;;;;1.28;53.87;98908.31;5070537;28;20029;-54
2022/02/09 06:12:44;;;;;;;2.65;1.55;;;;;;;1.24;54.24;98896.25;5070023;28;20025;-54
2022/02/09 06:15:33;;;;;;;3.30;1.80;;;;;;;1.37;54.14;98903.44;5070440;28;20025;-55
2022/02/09 06:20:43;;;;;;;3.80;2.08;;;;;;;1.50;54.04;98901.81;5070617;28;20056;-50
2022/02/09 06:23:09;;;;;;;2.85;1.80;;;;;;;1.47;53.51;98890.59;5070607;28;20078;-56
2022/02/09 06:25:34;;;;;;;2.90;1.70;;;;;;;1.52;53.82;98894.66;5070969;28;20043;-56
2022/02/09 06:27:59;;;;;;;3.13;2.10;;;;;;;1.62;54.14;98894.97;5070545;28;20035;-57
2022/02/09 06:30:25;;;;;;;4.53;2.08;;;;;;;1.61;53.82;98902.97;5053144;28;20032;-53
2022/02/09 06:32:50;;;;;;;3.10;2.13;;;;;;;1.67;54.04;98905.25;5070482;28;20082;-56
2022/02/09 06:35:18;;;;;;;5.22;2.60;;;;;;;1.73;54.43;98918.09;5070991;28;20527;-54
2022/02/09 06:37:46;;;;;;;4.30;2.67;;;;;;;1.75;53.88;98921.50;5069618;28;20104;-54
2022/02/09 06:40:16;;;;;;;4.25;2.40;;;;;;;1.76;53.91;98923.19;5069926;28;20063;-52
2022/02/09 06:42:41;;;;;;;4.93;2.33;;;;;;;1.77;54.44;98922.25;5068992;28;20504;-56
2022/02/09 06:45:14;;;;;;;4.47;2.47;;;;;;;1.74;54.54;98924.22;5068704;28;20044;-57
2022/02/09 06:47:40;;;;;;;6.10;2.55;;;;;;;1.70;54.63;98913.84;5070027;28;20085;-52
2022/02/09 06:50:11;;;;;;;3.83;2.50;;;;;;;1.79;54.54;98919.50;5069608;28;20020;-53
2022/02/09 06:52:44;;;;;;;3.85;2.33;;;;;;;1.86;54.65;98924.34;5069005;28;20397;-57
2022/02/09 06:55:17;;;;;;;6.65;2.80;;;;;;;1.85;54.58;98927.91;5066798;28;20024;-53
2022/02/09 06:58:01;;;;;;;5.35;2.70;;;;;;;1.96;54.59;98926.44;5068906;28;20032;-55
2022/02/09 07:00:29;;;;;;;10.73;2.88;;;;;;;2.07;54.61;98925.81;5069493;28;20462;-58
2022/02/09 07:02:55;;;;;;;7.45;3.15;;;;;;;2.26;54.66;98936.09;5069976;28;20103;-53
2022/02/09 07:05:20;;;;;;;5.40;2.90;;;;;;;2.43;54.18;98938.56;5070374;28;20501;-53
2022/02/09 07:07:46;;;;;;;4.85;2.67;;;;;;;2.33;53.46;98889.88;5070471;28;20033;-58
2022/02/09 07:10:13;;;;;;;7.65;2.88;;;;;;;2.81;53.47;98933.63;5069393;28;20035;-54
2022/02/09 07:12:39;;;;;;;4.10;2.95;;;;;;;3.05;52.20;98933.00;5067618;28;20798;-53
2022/02/09 07:15:11;;;;;;;9.75;3.05;;;;;;;3.26;52.01;98933.44;5068379;28;20032;-53
2022/02/09 07:17:37;;;;;;;4.55;2.97;;;;;;;3.51;51.89;98934.50;5028064;28;20049;-54
2022/02/09 07:20:12;;;;;;;6.85;3.38;;;;;;;3.91;50.72;98934.47;5028750;28;20037;-54
2022/02/09 07:22:39;;;;;;;7.70;2.95;;;;;;;4.28;49.73;98939.06;5028898;28;20033;-56
2022/02/09 07:25:17;;;;;;;5.28;3.05;;;;;;;4.33;49.10;98931.63;5029126;28;20046;-54
2022/02/09 07:27:53;;;;;;;7.22;3.60;;;;;;;4.44;48.96;98929.09;5029001;28;20025;-52
2022/02/09 07:30:26;;;;;;;5.03;3.15;;;;;;;4.75;48.66;98936.72;5027812;28;20379;-54
2022/02/09 07:32:58;;;;;;;4.40;3.15;;;;;;;5.16;47.62;98950.59;5030322;28;20076;-58
2022/02/09 07:35:31;;;;;;;6.85;3.15;;;;;;;7.21;43.63;98935.09;5029482;28;20540;-57
2022/02/09 07:37:58;;;;;;;4.15;2.85;;;;;;;10.23;37.06;98925.16;5017835;28;20045;-56
2022/02/09 07:40:23;;;;;;;7.03;3.28;;;;;;;11.98;33.84;98927.06;5010404;28;20084;-58
2022/02/09 07:42:54;;;;;;;4.53;3.03;;;;;;;13.15;31.62;98933.94;5010500;28;20022;-54
2022/02/09 07:51:01;;;;;;;3.75;2.67;;;;;;;15.66;26.57;98921.66;5030088;28;20128;-58
2022/02/09 07:53:36;;;;;;;3.33;2.50;;;;;;;15.52;26.59;98923.25;5029392;28;20033;-56
2022/02/09 07:56:03;;;;;;;3.03;2.72;;;;;;;14.37;27.28;98938.81;5022984;28;20030;-57
2022/02/09 07:58:28;;;;;;;5.18;3.08;;;;;;;13.04;29.65;98938.63;5010418;28;20033;-53
2022/02/09 08:00:54;;;;;;;5.93;3.10;;;;;;;11.75;31.14;98929.34;5028560;28;20099;-57
2022/02/09 08:03:19;;;;;;;9.35;3.42;;;;;;;10.62;32.99;98931.25;5030235;28;20091;-59
2022/02/09 08:05:45;;;;;;;6.55;3.20;;;;;;;9.87;34.60;98947.97;5028888;28;20478;-55
2022/02/09 08:08:11;;;;;;;4.70;3.08;;;;;;;8.95;35.76;98944.63;5029312;28;20033;-58
2022/02/09 08:10:46;;;;;;;4.85;2.83;;;;;;;8.14;37.44;98943.47;5029802;28;20355;-58
2022/02/09 08:31:58;;;;;;;6.53;3.30;;;;;;;6.15;40.63;98948.66;5072451;28;20550;-52
2022/02/09 08:34:24;;;;;;;3.50;2.60;;;;;;;6.12;41.03;98951.53;5062561;28;20128;-57
2022/02/09 08:36:49;;;;;;;4.28;2.95;;;;;;;6.03;41.74;98946.94;5054734;28;20107;-60
2022/02/09 08:39:15;;;;;;;5.38;3.20;;;;;;;6.01;41.95;98940.88;5072759;28;20036;-59
2022/02/09 08:41:40;;;;;;;6.50;3.30;;;;;;;6.10;42.38;98942.84;5072834;28;20033;-62
2022/02/09 08:44:07;;;;;;;3.83;2.80;;;;;;;5.98;41.13;98910.06;5055527;28;20032;-61
2022/02/09 08:46:33;;;;;;;4.70;2.83;;;;;;;5.82;41.02;98898.88;5073054;28;20047;-55
2022/02/09 08:48:58;;;;;;;3.33;2.78;;;;;;;6.05;42.05;98942.34;5072638;28;20458;-59
2022/02/09 08:51:26;;;;;;;5.40;2.90;;;;;;;6.11;41.38;98936.56;5072570;28;20099;-60
2022/02/09 08:53:52;;;;;;;3.58;3.03;;;;;;;6.15;41.68;98940.69;5072718;28;20133;-58
2022/02/09 08:56:17;;;;;;;5.57;2.72;;;;;;;6.22;41.06;98935.75;5072555;28;20032;-60
2022/02/09 08:58:44;;;;;;;9.23;3.30;;;;;;;6.50;41.23;98952.22;5072582;28;20115;-61
2022/02/09 09:01:21;;;;;;;3.95;2.67;;;;;;;6.71;40.49;98944.34;5072917;28;20107;-61
2022/02/09 09:03:51;;;;;;;4.95;2.13;;;;;;;6.87;40.01;98943.16;5073155;28;20021;-61
2022/02/09 09:06:22;;;;;;;4.72;2.40;;;;;;;7.00;39.41;98951.84;5070156;28;20032;-61
2022/02/09 10:02:41;;;;;;;3.25;2.38;;;;;;;6.64;40.22;98932.50;5071423;28;20031;-61
2022/02/09 10:05:33;;;;;;;4.28;2.60;;;;;;;6.58;39.91;98940.97;5070892;28;20107;-65
2022/02/09 10:33:53;;;;;;;3.00;2.20;;;;;;;4.79;43.61;98924.06;5052903;28;20435;-57
2022/02/09 10:36:20;;;;;;;3.38;2.50;;;;;;;4.72;43.54;98921.84;5053148;28;20040;-60
2022/02/09 10:38:48;;;;;;;4.55;2.60;;;;;;;4.70;43.92;98928.19;5071052;28;20035;-56
2022/02/09 10:41:24;;;;;;;4.82;2.55;;;;;;;4.68;43.70;98928.34;5070623;28;20036;-59
2022/02/09 10:44:05;;;;;;;4.43;2.95;;;;;;;4.77;44.19;98931.28;5052546;28;20028;-58
2022/02/09 10:46:31;;;;;;;4.65;2.80;;;;;;;4.57;43.70;98925.56;5070614;28;20048;-54
2022/02/09 10:49:00;;;;;;;4.18;2.40;;;;;;;4.51;44.26;98949.88;5070129;28;20037;-53
2022/02/09 10:54:09;;;;;;;5.47;2.72;;;;;;;4.52;44.54;98938.31;5070497;28;20055;-53
2022/02/09 10:56:37;;;;;;;3.35;2.67;;;;;;;4.52;43.51;98940.97;5070821;28;20119;-61
2022/02/09 10:59:05;;;;;;;7.53;2.47;;;;;;;4.44;44.73;98930.88;5070461;28;20024;-63
2022/02/09 11:01:31;;;;;;;4.47;2.78;;;;;;;4.32;45.21;98929.94;5052292;28;20123;-65
2022/02/09 11:03:59;;;;;;;3.08;2.60;;;;;;;4.27;44.90;98932.06;5070181;28;20115;-61
2022/02/09 11:06:31;;;;;;;5.15;2.65;;;;;;;4.31;45.78;98938.84;5070594;28;20151;-58
2022/02/09 11:08:57;;;;;;;5.80;2.50;;;;;;;4.18;45.46;98930.06;5070379;28;20078;-64
2022/02/09 11:11:23;;;;;;;5.05;2.63;;;;;;;4.06;45.92;98924.63;5051899;28;20024;-54
2022/02/09 11:13:49;;;;;;;5.93;3.28;;;;;;;4.01;46.36;98932.03;5070241;28;20139;-54
2022/02/09 11:16:17;;;;;;;4.05;2.70;;;;;;;3.96;46.47;98934.16;5070331;28;20056;-56
2022/02/09 11:18:47;;;;;;;7.05;3.13;;;;;;;3.85;46.79;98933.06;5070935;28;20048;-57
2022/02/09 11:21:14;;;;;;;3.53;2.80;;;;;;;3.74;46.34;98925.00;5069565;28;20025;-53
2022/02/09 11:23:57;;;;;;;5.20;2.88;;;;;;;3.76;47.62;98923.09;5070414;28;20033;-54
2022/02/09 11:29:18;;;;;;;4.25;2.50;;;;;;;3.71;46.66;98941.09;5070137;28;20033;-57
2022/02/09 11:32:12;;;;;;;4.32;2.58;;;;;;;3.61;47.65;98926.75;5069503;28;20159;-56
2022/02/09 11:35:23;;;;;;;5.72;3.30;;;;;;;3.51;47.63;98940.63;5060251;28;20397;-55
2022/02/09 11:40:51;;;;;;;5.68;2.67;;;;;;;3.45;47.98;98941.88;5070309;28;20067;-52
2022/02/09 11:43:31;;;;;;;4.93;3.03;;;;;;;3.34;48.44;98938.22;5063857;28;20076;-60
2022/02/09 12:00:36;;;;;;;4.18;2.70;;;;;;;3.65;47.81;98941.53;5032156;28;20032;-59
2022/02/09 12:10:00;;;;;;;4.30;2.78;;;;;;;3.79;47.77;98952.03;4972679;28;20045;-62
2022/02/09 12:12:40;;;;;;;6.88;2.90;;;;;;;3.88;47.76;98963.81;4961416;28;20042;-62
2022/02/09 12:15:32;;;;;;;6.50;3.33;;;;;;;3.55;48.21;98907.69;5028244;28;20111;-63
2022/02/09 12:18:25;;;;;;;5.32;3.00;;;;;;;3.91;48.13;98953.00;5035634;28;20044;-61
2022/02/09 12:21:01;;;;;;;6.90;3.67;;;;;;;3.89;48.69;98952.25;5035970;28;20033;-63
2022/02/09 12:23:33;;;;;;;6.43;3.08;;;;;;;3.87;48.19;98956.81;5066685;28;20033;-59
2022/02/09 12:26:00;;;;;;;8.40;3.15;;;;;;;3.78;49.09;98960.09;5053269;28;20033;-65
2022/02/09 12:28:35;;;;;;;5.63;3.30;;;;;;;3.56;48.48;98912.03;5053144;28;20114;-65
2022/02/09 12:31:23;;;;;;;5.27;3.07;;;;;;;3.95;48.45;98961.59;5053002;28;20040;-60
2022/02/09 12:33:54;;;;;;;5.32;3.15;;;;;;;3.82;48.97;98959.75;5066677;28;20278;-61
2022/02/09 12:36:22;;;;;;;4.15;3.03;;;;;;;3.85;49.08;98964.00;5073396;28;20021;-61
2022/02/09 12:38:56;;;;;;;5.30;2.78;;;;;;;3.79;48.99;98964.44;5072642;28;20808;-62
2022/02/09 12:41:23;;;;;;;4.07;2.80;;;;;;;3.72;49.12;98953.38;5073180;28;20162;-62
2022/02/09 12:43:50;;;;;;;4.80;3.17;;;;;;;3.78;48.99;98963.56;5072984;28;20109;-64
2022/02/09 12:46:18;;;;;;;8.45;3.13;;;;;;;3.74;49.04;98970.03;5073131;28;20033;-63
2022/02/09 12:48:44;;;;;;;6.75;3.03;;;;;;;3.42;49.66;98920.91;5072706;28;20029;-62
2022/02/09 12:51:19;;;;;;;4.72;3.10;;;;;;;3.43;48.91;98930.53;5038480;28;20020;-62
2022/02/09 12:53:47;;;;;;;4.35;2.83;;;;;;;3.60;49.88;98963.00;5055657;28;20150;-52
2022/02/09 12:56:24;;;;;;;5.32;3.22;;;;;;;3.64;49.61;98964.47;5072196;28;20112;-64
2022/02/09 12:59:08;;;;;;;4.95;3.10;;;;;;;3.59;49.79;98975.34;5072628;28;20039;-64
2022/02/09 13:01:42;;;;;;;8.52;3.42;;;;;;;3.54;50.15;98979.28;5072936;28;20051;-63
2022/02/09 13:04:08;;;;;;;6.25;3.70;;;;;;;3.43;50.34;98987.91;5073138;28;20493;-62
2022/02/09 13:06:34;;;;;;;5.30;3.60;;;;;;;3.16;50.36;98952.53;5035947;28;20037;-63
2022/02/09 13:09:00;;;;;;;7.72;4.07;;;;;;;3.35;50.50;98987.53;5053829;28;20130;-62
2022/02/09 13:11:34;;;;;;;6.00;3.50;;;;;;;3.38;50.04;98995.31;5073043;28;20032;-60
2022/02/09 13:14:09;;;;;;;9.90;4.13;;;;;;;3.36;50.35;98994.53;5051462;28;20029;-53
2022/02/09 14:11:55;;;;;;;7.43;4.57;;;;;;;2.62;52.90;98990.25;5071233;28;20029;-60
2022/02/09 14:47:44;;;;;;;4.85;3.25;;;;;;;2.24;54.25;98999.56;5054575;28;20623;-55
2022/02/09 14:52:35;;;;;;;6.38;3.40;;;;;;;2.33;53.78;99019.31;5049345;28;20036;-65
2022/02/09 14:58:03;;;;;;;5.43;3.80;;;;;;;2.38;54.36;99004.03;5022734;28;20056;-62
2022/02/09 15:00:34;;;;;;;6.93;4.03;;;;;;;2.28;54.63;98994.97;5069352;28;20055;-63
2022/02/09 15:03:21;;;;;;;6.32;3.60;;;;;;;2.33;54.92;99015.81;5027688;28;20037;-61
2022/02/09 15:06:24;;;;;;;6.25;3.58;;;;;;;2.27;55.96;99017.03;5047261;28;20021;-62
2022/02/09 15:09:04;;;;;;;6.30;3.75;;;;;;;2.25;55.32;99014.47;5063493;28;20040;-57
2022/02/09 15:11:50;;;;;;;11.07;4.55;;;;;;;2.23;55.89;99015.53;5051801;28;20046;-57
2022/02/09 15:14:23;;;;;;;;;;;;;;;2.51;54.00;99011.22;5069636;28;20071;-59
2022/02/09 15:17:00;;;;;;;9.25;5.03;;;;;;;2.30;55.80;99016.84;5048387;28;19920;-59
2022/02/09 15:22:34;;;;;;;8.93;4.70;;;;;;;2.15;56.23;99006.25;4987645;28;20458;-61
2022/02/09 15:25:00;;;;;;;8.07;4.22;;;;;;;2.26;56.71;99017.97;4987801;28;20046;-63
2022/02/09 15:27:26;;;;;;;8.68;4.70;;;;;;;2.23;57.25;99020.81;5021329;28;20041;-58
2022/02/09 15:29:53;;;;;;;10.30;5.03;;;;;;;2.21;57.70;99020.88;5069984;28;20025;-63
2022/02/09 15:32:31;;;;;;;8.40;4.95;;;;;;;2.21;57.68;99022.69;5063734;28;20033;-61
2022/02/09 15:35:01;;;;;;;10.05;4.88;;;;;;;2.22;58.25;99032.31;5064755;28;20048;-58
2022/02/09 15:39:56;;;;;;;11.73;4.45;;;;;;;2.20;59.07;99036.84;5073512;28;20016;-59
2022/02/09 15:56:24;;;;;;;8.20;5.03;;;;;;;1.99;60.19;99029.22;5073184;28;20424;-61
2022/02/09 16:19:19;;;;;;;13.82;5.95;;;;;;;2.23;60.61;99039.28;5069846;28;20040;-58
2022/02/09 16:24:12;;;;;;;14.65;5.70;;;;;;;2.29;61.02;99036.28;5071324;28;20086;-54
2022/02/09 16:45:44;;;;;;;11.15;5.30;;;;;;;2.26;60.72;99039.94;5064354;28;20036;-58
2022/02/09 16:48:13;;;;;;;12.15;5.63;;;;;;;2.26;60.46;99037.31;5071837;28;20036;-59
2022/02/09 16:50:48;;;;;;;10.63;5.70;;;;;;;2.29;60.91;99044.22;5070730;28;20539;-59
2022/02/09 16:56:22;;;;;;;10.93;5.45;;;;;;;2.27;60.96;99046.09;5072046;28;20525;-59
2022/02/09 17:19:46;;;;;;;10.40;6.30;;;;;;;2.21;61.94;99046.47;5057497;28;20079;-59
2022/02/09 17:22:12;;;;;;;9.80;5.70;;;;;;;2.22;62.25;99040.22;5052550;28;20123;-57
2022/02/09 17:24:38;;;;;;;10.10;6.25;;;;;;;2.24;61.88;99046.28;5070498;28;20041;-56
2022/02/09 17:27:07;;;;;;;9.88;6.10;;;;;;;2.27;61.43;99043.44;5071078;28;20477;-60
2022/02/09 17:29:57;;;;;;;11.98;5.88;;;;;;;2.29;61.78;99034.50;5055653;28;20402;-58
2022/02/09 17:32:34;;;;;;;11.40;5.78;;;;;;;2.32;61.43;99045.84;5065530;28;20466;-60
2022/02/09 17:53:35;;;;;;;9.07;5.80;;;;;;;2.25;62.16;99029.50;5060581;28;20032;-56
2022/02/09 17:56:13;;;;;;;9.80;5.65;;;;;;;2.23;62.02;99039.28;5071607;28;20080;-59
2022/02/09 17:58:45;;;;;;;10.68;5.68;;;;;;;2.15;62.13;99035.28;5070480;28;20103;-58
2022/02/09 18:01:11;;;;;;;8.48;5.20;;;;;;;2.15;62.18;99039.75;5070861;28;20056;-56
2022/02/09 18:03:37;;;;;;;7.65;5.13;;;;;;;2.15;62.23;99040.56;5071784;28;20028;-54
2022/02/09 18:06:23;;;;;;;12.38;5.50;;;;;;;2.14;62.28;99028.31;5070621;28;20845;-62
2022/02/09 18:11:34;;;;;;;8.88;5.25;;;;;;;2.19;61.74;99046.53;5071692;28;19962;-61
2022/02/09 18:29:54;;;;;;;7.53;5.03;;;;;;;2.01;62.21;99022.91;5070394;28;20112;-60
2022/02/09 19:03:56;;;;;;;8.90;5.22;;;;;;;1.68;62.98;98994.03;5034983;28;20033;-62
2022/02/09 19:17:38;;;;;;;6.75;4.97;;;;;;;1.96;63.36;99037.31;5067656;28;20057;-54
2022/02/09 19:49:15;;;;;;;8.73;5.47;;;;;;;1.94;63.93;99041.84;5069025;28;20027;-52
2022/02/09 19:52:00;;;;;;;8.68;5.10;;;;;;;1.94;63.82;99053.25;5069820;28;20115;-54
2022/02/09 19:55:00;;;;;;;8.68;5.45;;;;;;;1.93;64.33;99037.47;5069275;28;20028;-60
2022/02/09 19:57:26;;;;;;;6.55;4.70;;;;;;;2.00;63.90;99049.41;5069692;28;20032;-60
2022/02/09 19:59:54;;;;;;;8.07;5.07;;;;;;;1.98;63.63;99043.38;5069715;28;20041;-55
2022/02/09 20:02:20;;;;;;;9.52;5.43;;;;;;;1.67;63.64;98992.31;5069234;28;20032;-54
2022/02/09 20:04:46;;;;;;;9.65;5.30;;;;;;;1.76;63.79;99017.34;5068306;28;20212;-55
2022/02/09 20:07:12;;;;;;;7.30;5.15;;;;;;;1.94;64.07;99047.13;5050770;28;20041;-57
2022/02/09 20:09:38;;;;;;;8.90;5.43;;;;;;;1.94;63.80;99047.97;5069295;28;20377;-56
2022/02/09 20:12:04;;;;;;;8.10;4.90;;;;;;;1.95;64.14;99054.09;5069484;28;20469;-53
2022/02/09 20:14:30;;;;;;;8.05;5.20;;;;;;;1.93;64.13;99045.41;5069084;28;20439;-58
2022/02/09 20:16:56;;;;;;;6.85;4.65;;;;;;;1.96;64.01;99056.63;5052119;28;20127;-55
2022/02/09 20:19:22;;;;;;;7.10;5.20;;;;;;;1.86;64.04;99035.19;5069105;28;20028;-55
2022/02/09 20:21:47;;;;;;;6.72;4.68;;;;;;;1.69;64.15;98999.22;5051346;28;20104;-57
2022/02/09 20:24:16;;;;;;;9.48;5.10;;;;;;;1.97;64.30;99046.94;5069642;28;20033;-56
2022/02/09 20:26:42;;;;;;;6.78;4.70;;;;;;;1.69;64.34;98995.75;5071404;28;20044;-56
2022/02/09 20:29:20;;;;;;;9.07;5.07;;;;;;;1.99;64.24;99050.34;5053559;28;20021;-56
2022/02/09 20:34:23;;;;;;;6.05;4.25;;;;;;;1.99;64.27;99039.78;5072623;28;20492;-54
2022/02/09 20:36:48;;;;;;;7.60;4.72;;;;;;;2.03;64.05;99040.44;5071744;28;20064;-60
2022/02/09 20:39:19;;;;;;;6.57;4.32;;;;;;;2.01;64.51;99029.97;5061590;28;20118;-56
2022/02/09 20:41:45;;;;;;;8.50;4.53;;;;;;;1.98;63.78;99032.81;5063602;28;20033;-58
2022/02/09 20:47:13;;;;;;;5.70;4.28;;;;;;;2.01;63.89;99032.63;5010132;28;20057;-56
2022/02/09 20:49:38;;;;;;;8.40;4.25;;;;;;;1.76;63.99;98983.88;5043073;28;20048;-54
2022/02/09 20:52:04;;;;;;;7.95;4.50;;;;;;;2.03;64.18;99041.31;5052265;28;20025;-54
2022/02/09 20:54:30;;;;;;;7.78;4.50;;;;;;;2.05;64.19;99039.41;5052605;28;20462;-53
2022/02/09 20:56:56;;;;;;;9.63;4.35;;;;;;;2.04;63.85;99035.09;5043890;28;20389;-57
2022/02/09 20:59:22;;;;;;;5.97;4.10;;;;;;;1.94;63.86;99031.28;5073462;28;20047;-57
2022/02/09 21:02:04;;;;;;;10.40;4.82;;;;;;;2.01;64.04;99040.53;5071974;28;20028;-59
2022/02/09 21:04:32;;;;;;;7.25;4.57;;;;;;;2.00;63.81;99030.91;5064036;28;20036;-58
2022/02/09 21:07:10;;;;;;;5.75;4.07;;;;;;;1.95;63.93;99028.53;5069790;28;20048;-61
2022/02/09 21:21:01;;;;;;;6.55;4.00;;;;;;;1.62;64.13;98994.38;5045065;28;20127;-57
2022/02/09 21:26:35;;;;;;;6.25;4.13;;;;;;;1.69;64.31;99019.50;5070988;28;20496;-51
2022/02/09 21:43:53;;;;;;;6.90;3.80;;;;;;;1.80;64.27;99032.91;5071988;28;20029;-53
2022/02/09 21:46:26;;;;;;;5.00;3.53;;;;;;;1.82;64.20;99043.41;5072755;28;20112;-57
2022/02/09 21:56:15;;;;;;;6.35;3.72;;;;;;;1.52;64.13;98992.28;5037683;28;20037;-55
2022/02/09 21:58:56;;;;;;;6.32;4.03;;;;;;;1.79;63.48;99038.28;5071862;28;20198;-52
2022/02/09 22:20:23;;;;;;;6.53;3.95;;;;;;;1.22;64.70;98986.94;5054153;28;20037;-56
2022/02/09 22:27:46;;;;;;;4.85;3.35;;;;;;;1.48;64.19;99022.41;5071590;28;20032;-56
2022/02/09 22:49:18;;;;;;;6.18;3.15;;;;;;;1.53;63.13;99017.72;5071104;28;20025;-53
2022/02/09 22:56:54;;;;;;;4.65;2.80;;;;;;;1.45;63.67;99025.22;5032884;28;20037;-54
2022/02/09 22:59:33;;;;;;;3.33;2.33;;;;;;;1.19;62.96;98993.22;5051645;28;20075;-53
2022/02/09 23:02:07;;;;;;;3.40;2.50;;;;;;;1.45;63.04;99033.13;5051017;28;20040;-56
2022/02/09 23:04:43;;;;;;;4.45;2.78;;;;;;;1.47;63.17;99020.72;5070116;28;20432;-50
2022/02/09 23:07:25;;;;;;;3.50;2.53;;;;;;;1.49;62.93;99028.50;5070984;28;20347;-53
2022/02/09 23:10:11;;;;;;;4.03;2.40;;;;;;;1.52;62.13;99010.75;5071315;28;20047;-52
2022/02/09 23:12:44;;;;;;;3.38;2.33;;;;;;;1.50;62.17;99017.91;5070614;28;20032;-52
2022/02/09 23:57:03;;;;;;;5.43;2.30;;;;;;;1.51;62.52;98984.44;5070107;28;20029;-55
